createdAt,value
2017-05-16T00:00:43.832Z,15.76
2017-05-16T00:01:45.233Z,15.78
2017-05-16T00:02:46.658Z,15.76
2017-05-16T00:03:48.055Z,15.74
2017-05-16T00:04:49.465Z,15.79
2017-05-16T00:05:50.904Z,15.75
2017-05-16T00:06:52.305Z,15.82
2017-05-16T00:07:53.795Z,15.76
2017-05-16T00:08:55.217Z,15.81
2017-05-16T00:09:56.674Z,15.76
2017-05-16T00:10:58.178Z,15.84
2017-05-16T00:11:59.590Z,15.68
2017-05-16T00:13:01.078Z,15.79
2017-05-16T00:14:02.527Z,15.75
2017-05-16T00:15:03.926Z,15.81
2017-05-16T00:16:05.334Z,15.75
2017-05-16T00:17:06.840Z,15.72
2017-05-16T00:18:08.282Z,15.76
2017-05-16T00:19:09.694Z,15.76
2017-05-16T00:20:11.166Z,15.75
2017-05-16T00:21:12.702Z,15.78
2017-05-16T00:22:14.087Z,15.68
2017-05-16T00:23:15.501Z,15.66
2017-05-16T00:24:16.914Z,15.63
2017-05-16T00:25:18.325Z,15.74
2017-05-16T00:26:20.241Z,15.67
2017-05-16T00:27:21.626Z,15.75
2017-05-16T00:28:23.017Z,15.66
2017-05-16T00:29:24.415Z,15.64
2017-05-16T00:30:25.855Z,15.61
2017-05-16T00:31:27.241Z,15.63
2017-05-16T00:32:28.628Z,15.63
2017-05-16T00:33:30.016Z,15.74
2017-05-16T00:34:31.404Z,15.76
2017-05-16T00:35:33.009Z,15.61
2017-05-16T00:36:34.399Z,15.70
2017-05-16T00:37:35.826Z,15.59
2017-05-16T00:38:37.370Z,15.59
2017-05-16T00:39:38.759Z,15.59
2017-05-16T00:40:40.183Z,15.61
2017-05-16T00:41:41.563Z,15.63
2017-05-16T00:42:43.005Z,15.57
2017-05-16T00:43:44.421Z,15.57
2017-05-16T00:44:45.819Z,15.59
2017-05-16T00:45:47.217Z,15.54
2017-05-16T00:46:48.665Z,15.56
2017-05-16T00:47:50.055Z,15.52
2017-05-16T00:48:51.455Z,15.48
2017-05-16T00:49:52.885Z,15.52
2017-05-16T00:50:54.268Z,15.54
2017-05-16T00:51:55.657Z,15.46
2017-05-16T00:52:57.048Z,15.51
2017-05-16T00:53:59.263Z,15.56
2017-05-16T00:55:00.662Z,15.57
2017-05-16T00:56:03.720Z,15.51
2017-05-16T00:57:05.110Z,15.56
2017-05-16T00:58:06.503Z,15.57
2017-05-16T00:59:07.896Z,15.49
2017-05-16T01:00:09.441Z,15.52
2017-05-16T01:01:10.842Z,15.51
2017-05-16T01:02:12.232Z,15.46
2017-05-16T01:03:13.633Z,15.43
2017-05-16T01:04:15.040Z,15.51
2017-05-16T01:05:16.432Z,15.43
2017-05-16T01:06:17.821Z,15.41
2017-05-16T01:07:19.218Z,15.39
2017-05-16T01:08:20.612Z,15.42
2017-05-16T01:09:22.013Z,15.46
2017-05-16T01:10:23.439Z,15.45
2017-05-16T01:11:24.843Z,15.38
2017-05-16T01:12:26.269Z,15.48
2017-05-16T01:13:27.676Z,15.42
2017-05-16T01:14:29.268Z,15.30
2017-05-16T01:15:30.640Z,15.36
2017-05-16T01:16:32.033Z,15.36
2017-05-16T01:17:33.411Z,15.35
2017-05-16T01:18:34.810Z,15.36
2017-05-16T01:19:36.196Z,15.39
2017-05-16T01:20:37.586Z,15.35
2017-05-16T01:21:38.976Z,15.36
2017-05-16T01:22:40.423Z,15.39
2017-05-16T01:23:41.820Z,15.39
2017-05-16T01:24:43.233Z,15.39
2017-05-16T01:25:44.685Z,15.38
2017-05-16T01:26:46.079Z,15.42
2017-05-16T01:27:47.464Z,15.33
2017-05-16T01:28:48.870Z,15.30
2017-05-16T01:29:50.273Z,15.31
2017-05-16T01:30:51.682Z,15.36
2017-05-16T01:31:53.125Z,15.35
2017-05-16T01:32:54.562Z,15.28
2017-05-16T01:33:55.952Z,15.27
2017-05-16T01:34:57.343Z,15.30
2017-05-16T01:35:58.736Z,15.30
2017-05-16T01:37:00.137Z,15.21
2017-05-16T01:38:01.530Z,15.30
2017-05-16T01:39:02.924Z,15.31
2017-05-16T01:40:04.327Z,15.26
2017-05-16T01:41:05.750Z,15.30
2017-05-16T01:42:07.213Z,15.35
2017-05-16T01:43:08.609Z,15.24
2017-05-16T01:44:10.006Z,15.27
2017-05-16T01:45:11.392Z,15.21
2017-05-16T01:46:12.781Z,15.26
2017-05-16T01:47:14.236Z,15.24
2017-05-16T01:48:15.631Z,15.26
2017-05-16T01:49:17.018Z,15.28
2017-05-16T01:50:18.415Z,15.19
2017-05-16T01:51:19.810Z,15.08
2017-05-16T01:52:21.201Z,15.13
2017-05-16T01:53:22.593Z,15.23
2017-05-16T01:54:23.991Z,15.13
2017-05-16T01:55:25.370Z,15.15
2017-05-16T01:56:26.767Z,15.17
2017-05-16T01:57:28.173Z,15.17
2017-05-16T01:58:29.554Z,15.13
2017-05-16T01:59:30.935Z,15.12
2017-05-16T02:00:32.321Z,15.15
2017-05-16T02:01:33.717Z,15.13
2017-05-16T02:02:35.107Z,15.17
2017-05-16T02:03:36.494Z,15.17
2017-05-16T02:04:37.882Z,15.11
2017-05-16T02:05:39.279Z,15.12
2017-05-16T02:06:40.675Z,15.09
2017-05-16T02:07:42.075Z,15.06
2017-05-16T02:08:43.465Z,15.12
2017-05-16T02:09:44.867Z,15.19
2017-05-16T02:10:46.237Z,15.08
2017-05-16T02:11:47.631Z,15.08
2017-05-16T02:12:49.015Z,15.11
2017-05-16T02:13:50.406Z,15.12
2017-05-16T02:14:51.793Z,15.13
2017-05-16T02:15:53.187Z,15.09
2017-05-16T02:16:54.578Z,15.06
2017-05-16T02:17:55.970Z,15.15
2017-05-16T02:18:57.357Z,15.12
2017-05-16T02:19:58.738Z,15.20
2017-05-16T02:21:00.150Z,15.19
2017-05-16T02:22:01.541Z,15.08
2017-05-16T02:23:02.996Z,15.12
2017-05-16T02:24:04.401Z,15.06
2017-05-16T02:25:05.789Z,15.09
2017-05-16T02:26:07.196Z,15.12
2017-05-16T02:27:08.569Z,15.08
2017-05-16T02:28:09.957Z,15.13
2017-05-16T02:29:11.344Z,15.13
2017-05-16T02:30:12.825Z,15.12
2017-05-16T02:31:14.202Z,15.06
2017-05-16T02:32:15.600Z,15.11
2017-05-16T02:33:17.002Z,15.13
2017-05-16T02:34:18.403Z,15.19
2017-05-16T02:35:19.797Z,15.08
2017-05-16T02:36:21.197Z,15.17
2017-05-16T02:37:22.597Z,15.11
2017-05-16T02:38:23.986Z,15.06
2017-05-16T02:39:25.375Z,15.08
2017-05-16T02:40:26.774Z,15.11
2017-05-16T02:41:28.163Z,15.15
2017-05-16T02:42:29.556Z,15.11
2017-05-16T02:43:30.946Z,15.13
2017-05-16T02:44:32.337Z,15.15
2017-05-16T02:45:33.738Z,15.21
2017-05-16T02:46:35.150Z,15.03
2017-05-16T02:47:36.546Z,15.15
2017-05-16T02:48:37.946Z,15.08
2017-05-16T02:49:39.334Z,15.12
2017-05-16T02:50:40.722Z,15.12
2017-05-16T02:51:42.126Z,15.11
2017-05-16T02:52:43.532Z,15.12
2017-05-16T02:53:44.917Z,15.08
2017-05-16T02:54:46.313Z,15.13
2017-05-16T02:55:49.251Z,15.17
2017-05-16T02:56:50.640Z,15.12
2017-05-16T02:57:52.029Z,15.06
2017-05-16T02:58:55.236Z,15.15
2017-05-16T02:59:56.630Z,15.12
2017-05-16T03:00:58.021Z,15.11
2017-05-16T03:01:59.407Z,15.24
2017-05-16T03:03:00.804Z,15.12
2017-05-16T03:04:02.213Z,15.13
2017-05-16T03:05:03.612Z,15.12
2017-05-16T03:06:05.010Z,15.13
2017-05-16T03:07:06.396Z,15.12
2017-05-16T03:08:07.788Z,15.06
2017-05-16T03:09:09.190Z,15.11
2017-05-16T03:10:10.578Z,15.11
2017-05-16T03:11:11.978Z,15.17
2017-05-16T03:12:13.397Z,15.06
2017-05-16T03:13:14.785Z,15.17
2017-05-16T03:14:16.180Z,15.11
2017-05-16T03:15:17.640Z,15.15
2017-05-16T03:16:19.034Z,15.11
2017-05-16T03:17:20.445Z,15.15
2017-05-16T03:18:21.833Z,15.08
2017-05-16T03:19:23.359Z,15.09
2017-05-16T03:20:24.765Z,15.11
2017-05-16T03:21:26.154Z,14.99
2017-05-16T03:22:27.617Z,15.12
2017-05-16T03:23:28.979Z,15.03
2017-05-16T03:24:30.395Z,15.09
2017-05-16T03:25:31.808Z,15.11
2017-05-16T03:26:33.227Z,15.11
2017-05-16T03:27:34.631Z,15.11
2017-05-16T03:28:36.030Z,15.19
2017-05-16T03:29:37.423Z,15.19
2017-05-16T03:30:38.816Z,15.09
2017-05-16T03:31:41.763Z,15.12
2017-05-16T03:32:43.176Z,15.08
2017-05-16T03:33:44.580Z,15.15
2017-05-16T03:34:46.761Z,15.11
2017-05-16T03:35:48.164Z,15.15
2017-05-16T03:36:49.568Z,15.08
2017-05-16T03:37:50.962Z,15.12
2017-05-16T03:38:52.356Z,15.15
2017-05-16T03:39:53.756Z,15.12
2017-05-16T03:40:55.154Z,15.15
2017-05-16T03:41:56.628Z,15.09
2017-05-16T03:42:58.025Z,15.09
2017-05-16T03:43:59.415Z,15.09
2017-05-16T03:45:00.821Z,15.12
2017-05-16T03:46:02.209Z,15.09
2017-05-16T03:47:03.599Z,15.12
2017-05-16T03:48:04.994Z,15.13
2017-05-16T03:49:06.411Z,15.12
2017-05-16T03:50:07.806Z,15.17
2017-05-16T03:51:09.202Z,15.23
2017-05-16T03:52:10.618Z,15.27
2017-05-16T03:53:12.011Z,15.21
2017-05-16T03:54:13.403Z,15.27
2017-05-16T03:55:14.809Z,15.21
2017-05-16T03:56:18.756Z,15.21
2017-05-16T03:57:20.163Z,15.28
2017-05-16T03:58:24.247Z,15.23
2017-05-16T03:59:25.645Z,15.27
2017-05-16T04:00:27.041Z,15.23
2017-05-16T04:01:28.456Z,15.28
2017-05-16T04:02:29.854Z,15.24
2017-05-16T04:03:31.248Z,15.28
2017-05-16T04:04:32.656Z,15.21
2017-05-16T04:05:34.052Z,15.27
2017-05-16T04:06:35.440Z,15.24
2017-05-16T04:07:36.831Z,15.27
2017-05-16T04:08:38.257Z,15.31
2017-05-16T04:09:39.647Z,15.31
2017-05-16T04:10:41.078Z,15.41
2017-05-16T04:11:42.498Z,15.35
2017-05-16T04:12:43.911Z,15.26
2017-05-16T04:13:45.325Z,15.31
2017-05-16T04:14:46.720Z,15.38
2017-05-16T04:15:48.154Z,15.36
2017-05-16T04:16:49.546Z,15.41
2017-05-16T04:17:50.941Z,15.43
2017-05-16T04:18:52.330Z,15.41
2017-05-16T04:19:53.729Z,15.36
2017-05-16T04:20:55.128Z,15.38
2017-05-16T04:21:56.524Z,15.28
2017-05-16T04:22:57.918Z,15.36
2017-05-16T04:23:59.345Z,15.41
2017-05-16T04:25:00.736Z,15.36
2017-05-16T04:26:02.176Z,15.49
2017-05-16T04:27:03.524Z,15.36
2017-05-16T04:28:04.916Z,15.46
2017-05-16T04:29:06.309Z,15.43
2017-05-16T04:30:07.703Z,15.42
2017-05-16T04:31:09.097Z,15.52
2017-05-16T04:32:10.491Z,15.57
2017-05-16T04:33:11.885Z,15.56
2017-05-16T04:34:13.292Z,15.51
2017-05-16T04:35:14.695Z,15.48
2017-05-16T04:36:16.254Z,15.51
2017-05-16T04:37:17.653Z,15.61
2017-05-16T04:38:19.052Z,15.59
2017-05-16T04:39:20.452Z,15.49
2017-05-16T04:40:21.841Z,15.60
2017-05-16T04:41:23.255Z,15.61
2017-05-16T04:42:24.646Z,15.61
2017-05-16T04:43:26.082Z,15.54
2017-05-16T04:44:27.527Z,15.64
2017-05-16T04:45:30.775Z,15.61
2017-05-16T04:46:32.238Z,15.57
2017-05-16T04:47:33.625Z,15.61
2017-05-16T04:48:35.027Z,15.67
2017-05-16T04:49:36.426Z,15.75
2017-05-16T04:50:37.827Z,15.75
2017-05-16T04:51:39.229Z,15.72
2017-05-16T04:52:40.618Z,15.82
2017-05-16T04:53:42.018Z,15.81
2017-05-16T04:54:43.409Z,15.82
2017-05-16T04:55:44.878Z,15.84
2017-05-16T04:56:46.279Z,15.82
2017-05-16T04:57:47.695Z,15.94
2017-05-16T04:58:49.105Z,15.89
2017-05-16T04:59:50.496Z,16.00
2017-05-16T05:00:51.900Z,15.94
2017-05-16T05:01:53.304Z,15.97
2017-05-16T05:02:54.744Z,16.01
2017-05-16T05:03:56.146Z,16.03
2017-05-16T05:04:57.544Z,16.03
2017-05-16T05:05:58.942Z,16.09
2017-05-16T05:07:00.340Z,16.03
2017-05-16T05:08:01.752Z,16.12
2017-05-16T05:09:03.151Z,16.07
2017-05-16T05:10:04.555Z,16.20
2017-05-16T05:11:05.973Z,16.16
2017-05-16T05:12:07.388Z,16.09
2017-05-16T05:13:08.796Z,16.20
2017-05-16T05:14:10.200Z,16.15
2017-05-16T05:15:11.595Z,16.15
2017-05-16T05:16:12.993Z,16.16
2017-05-16T05:17:14.391Z,16.27
2017-05-16T05:18:15.805Z,16.35
2017-05-16T05:19:17.216Z,16.30
2017-05-16T05:20:18.611Z,16.37
2017-05-16T05:21:20.024Z,16.38
2017-05-16T05:22:21.430Z,16.44
2017-05-16T05:23:22.823Z,16.44
2017-05-16T05:24:24.218Z,16.41
2017-05-16T05:25:25.628Z,16.41
2017-05-16T05:26:27.023Z,16.38
2017-05-16T05:27:28.445Z,16.53
2017-05-16T05:28:29.909Z,16.53
2017-05-16T05:29:31.352Z,16.60
2017-05-16T05:30:32.783Z,16.58
2017-05-16T05:31:34.196Z,16.59
2017-05-16T05:32:35.633Z,16.56
2017-05-16T05:33:37.037Z,16.60
2017-05-16T05:34:38.555Z,16.65
2017-05-16T05:35:39.969Z,16.60
2017-05-16T05:36:41.405Z,16.77
2017-05-16T05:37:42.886Z,16.78
2017-05-16T05:38:44.343Z,16.81
2017-05-16T05:39:45.773Z,16.85
2017-05-16T05:40:47.170Z,16.74
2017-05-16T05:41:48.592Z,16.81
2017-05-16T05:42:50.031Z,16.90
2017-05-16T05:43:51.470Z,16.85
2017-05-16T05:44:52.921Z,16.85
2017-05-16T05:45:54.380Z,16.92
2017-05-16T05:46:55.837Z,16.95
2017-05-16T05:47:57.351Z,17.07
2017-05-16T05:48:58.819Z,16.99
2017-05-16T05:50:00.400Z,17.18
2017-05-16T05:51:01.933Z,17.14
2017-05-16T05:52:03.377Z,17.07
2017-05-16T05:53:04.828Z,17.15
2017-05-16T05:54:06.320Z,17.17
2017-05-16T05:55:07.742Z,17.23
2017-05-16T05:56:09.214Z,17.26
2017-05-16T05:57:10.681Z,17.30
2017-05-16T05:58:12.112Z,17.22
2017-05-16T05:59:13.561Z,17.29
2017-05-16T06:00:15.009Z,17.29
2017-05-16T06:01:16.444Z,17.25
2017-05-16T06:02:17.876Z,17.30
2017-05-16T06:03:19.321Z,17.32
2017-05-16T06:04:20.736Z,17.40
2017-05-16T06:05:22.157Z,17.30
2017-05-16T06:06:23.585Z,17.46
2017-05-16T06:07:25.025Z,17.36
2017-05-16T06:08:26.490Z,17.51
2017-05-16T06:09:27.891Z,17.53
2017-05-16T06:10:29.330Z,17.43
2017-05-16T06:11:30.737Z,17.53
2017-05-16T06:12:32.135Z,17.55
2017-05-16T06:13:33.534Z,17.55
2017-05-16T06:14:34.948Z,17.64
2017-05-16T06:15:36.362Z,17.74
2017-05-16T06:16:37.861Z,17.67
2017-05-16T06:17:39.256Z,17.67
2017-05-16T06:18:40.673Z,17.74
2017-05-16T06:19:42.071Z,17.76
2017-05-16T06:20:43.478Z,17.82
2017-05-16T06:21:44.958Z,17.81
2017-05-16T06:22:46.462Z,17.82
2017-05-16T06:23:47.872Z,17.92
2017-05-16T06:24:49.419Z,17.88
2017-05-16T06:25:50.841Z,17.92
2017-05-16T06:26:52.267Z,17.88
2017-05-16T06:27:53.663Z,17.81
2017-05-16T06:28:55.070Z,17.92
2017-05-16T06:29:56.514Z,17.85
2017-05-16T06:30:57.967Z,18.02
2017-05-16T06:31:59.357Z,18.06
2017-05-16T06:33:00.777Z,18.09
2017-05-16T06:34:02.193Z,18.04
2017-05-16T06:35:03.591Z,18.12
2017-05-16T06:36:05.003Z,18.15
2017-05-16T06:37:06.589Z,18.17
2017-05-16T06:38:07.983Z,18.25
2017-05-16T06:39:09.422Z,18.25
2017-05-16T06:40:11.117Z,18.27
2017-05-16T06:41:12.564Z,18.37
2017-05-16T06:42:13.973Z,18.40
2017-05-16T06:43:15.414Z,18.40
2017-05-16T06:44:16.809Z,18.43
2017-05-16T06:45:18.234Z,18.52
2017-05-16T06:46:19.647Z,18.46
2017-05-16T06:47:21.083Z,18.44
2017-05-16T06:48:22.487Z,18.61
2017-05-16T06:49:23.889Z,18.50
2017-05-16T06:50:25.294Z,18.50
2017-05-16T06:51:26.859Z,18.59
2017-05-16T06:52:28.286Z,18.61
2017-05-16T06:53:29.730Z,18.57
2017-05-16T06:54:31.130Z,18.68
2017-05-16T06:55:32.596Z,18.59
2017-05-16T06:56:33.992Z,18.64
2017-05-16T06:57:35.401Z,18.68
2017-05-16T06:58:36.928Z,18.68
2017-05-16T06:59:38.415Z,18.64
2017-05-16T07:00:39.821Z,18.59
2017-05-16T07:01:41.244Z,18.62
2017-05-16T07:02:42.858Z,18.77
2017-05-16T07:03:44.254Z,18.77
2017-05-16T07:04:45.689Z,18.86
2017-05-16T07:05:47.102Z,18.76
2017-05-16T07:06:48.537Z,18.87
2017-05-16T07:07:49.929Z,18.82
2017-05-16T07:08:51.352Z,18.91
2017-05-16T07:09:52.782Z,18.91
2017-05-16T07:10:54.261Z,18.87
2017-05-16T07:11:55.667Z,18.82
2017-05-16T07:12:57.115Z,18.84
2017-05-16T07:13:58.564Z,18.98
2017-05-16T07:14:59.964Z,18.97
2017-05-16T07:16:01.360Z,19.05
2017-05-16T07:17:02.800Z,18.97
2017-05-16T07:18:04.268Z,19.17
2017-05-16T07:19:05.665Z,19.23
2017-05-16T07:20:07.015Z,19.08
2017-05-16T07:21:08.431Z,19.05
2017-05-16T07:22:09.876Z,19.06
2017-05-16T07:23:11.328Z,19.14
2017-05-16T07:24:12.726Z,19.06
2017-05-16T07:25:14.118Z,19.11
2017-05-16T07:26:15.530Z,19.18
2017-05-16T07:27:16.955Z,19.28
2017-05-16T07:28:18.371Z,19.31
2017-05-16T07:29:19.767Z,19.21
2017-05-16T07:30:21.178Z,19.35
2017-05-16T07:31:22.648Z,19.43
2017-05-16T07:32:24.051Z,19.24
2017-05-16T07:33:25.456Z,19.36
2017-05-16T07:34:26.878Z,19.36
2017-05-16T07:35:28.395Z,19.35
2017-05-16T07:36:29.783Z,19.28
2017-05-16T07:37:31.185Z,19.40
2017-05-16T07:38:32.600Z,19.48
2017-05-16T07:39:34.007Z,19.50
2017-05-16T07:40:35.421Z,19.38
2017-05-16T07:41:36.839Z,19.51
2017-05-16T07:42:38.245Z,19.43
2017-05-16T07:43:39.645Z,19.43
2017-05-16T07:44:41.058Z,19.55
2017-05-16T07:45:42.463Z,19.53
2017-05-16T07:46:43.869Z,19.48
2017-05-16T07:47:45.277Z,19.42
2017-05-16T07:48:46.717Z,19.54
2017-05-16T07:49:48.208Z,19.55
2017-05-16T07:50:49.608Z,19.61
2017-05-16T07:51:51.014Z,19.54
2017-05-16T07:52:52.449Z,19.73
2017-05-16T07:53:54.017Z,19.70
2017-05-16T07:54:55.404Z,19.66
2017-05-16T07:55:56.863Z,19.69
2017-05-16T07:56:58.267Z,19.70
2017-05-16T07:57:59.657Z,19.76
2017-05-16T07:59:01.136Z,19.63
2017-05-16T08:00:02.546Z,19.68
2017-05-16T08:01:03.945Z,19.68
2017-05-16T08:02:05.335Z,19.83
2017-05-16T08:03:06.749Z,19.79
2017-05-16T08:04:08.764Z,19.90
2017-05-16T08:05:10.170Z,19.95
2017-05-16T08:06:11.589Z,20.05
2017-05-16T08:07:13.005Z,20.09
2017-05-16T08:08:14.403Z,20.09
2017-05-16T08:09:15.809Z,20.09
2017-05-16T08:10:17.205Z,20.25
2017-05-16T08:11:18.763Z,20.23
2017-05-16T08:12:20.156Z,20.27
2017-05-16T08:13:21.549Z,20.30
2017-05-16T08:14:22.946Z,20.23
2017-05-16T08:15:24.348Z,20.33
2017-05-16T08:16:25.741Z,20.28
2017-05-16T08:17:27.177Z,20.30
2017-05-16T08:18:28.587Z,20.41
2017-05-16T08:19:30.021Z,20.51
2017-05-16T08:20:31.422Z,20.42
2017-05-16T08:21:32.824Z,20.56
2017-05-16T08:22:34.220Z,20.54
2017-05-16T08:23:35.621Z,20.51
2017-05-16T08:24:37.007Z,20.56
2017-05-16T08:25:38.403Z,20.47
2017-05-16T08:26:39.983Z,20.54
2017-05-16T08:27:41.462Z,20.53
2017-05-16T08:28:42.882Z,20.50
2017-05-16T08:29:44.305Z,20.54
2017-05-16T08:30:45.753Z,20.33
2017-05-16T08:31:47.153Z,20.50
2017-05-16T08:32:48.558Z,20.50
2017-05-16T08:33:50.005Z,20.30
2017-05-16T08:34:51.411Z,20.50
2017-05-16T08:35:52.880Z,20.65
2017-05-16T08:36:54.291Z,20.74
2017-05-16T08:37:55.727Z,20.64
2017-05-16T08:38:57.133Z,20.71
2017-05-16T08:39:58.529Z,20.69
2017-05-16T08:40:59.934Z,20.74
2017-05-16T08:42:01.378Z,20.80
2017-05-16T08:43:02.788Z,20.84
2017-05-16T08:44:04.178Z,20.81
2017-05-16T08:45:05.599Z,20.90
2017-05-16T08:46:07.007Z,20.93
2017-05-16T08:47:08.420Z,21.01
2017-05-16T08:48:09.813Z,20.99
2017-05-16T08:49:11.352Z,20.95
2017-05-16T08:50:12.796Z,20.98
2017-05-16T08:51:14.190Z,20.95
2017-05-16T08:52:15.629Z,20.81
2017-05-16T08:53:17.040Z,20.62
2017-05-16T08:54:18.455Z,20.79
2017-05-16T08:55:19.865Z,20.90
2017-05-16T08:56:21.306Z,20.96
2017-05-16T08:57:22.708Z,21.06
2017-05-16T08:58:24.104Z,21.16
2017-05-16T08:59:25.538Z,21.21
2017-05-16T09:00:26.947Z,21.26
2017-05-16T09:01:28.340Z,21.23
2017-05-16T09:02:29.737Z,21.14
2017-05-16T09:03:31.136Z,21.17
2017-05-16T09:04:32.541Z,21.17
2017-05-16T09:05:33.953Z,21.06
2017-05-16T09:06:35.355Z,21.19
2017-05-16T09:07:36.789Z,21.19
2017-05-16T09:08:38.190Z,21.08
2017-05-16T09:09:39.594Z,21.13
2017-05-16T09:10:40.988Z,21.20
2017-05-16T09:11:42.397Z,21.23
2017-05-16T09:12:43.796Z,21.38
2017-05-16T09:13:45.213Z,21.29
2017-05-16T09:14:46.616Z,21.36
2017-05-16T09:15:48.016Z,21.34
2017-05-16T09:16:49.415Z,21.14
2017-05-16T09:17:50.866Z,21.16
2017-05-16T09:18:52.269Z,21.20
2017-05-16T09:19:53.691Z,21.29
2017-05-16T09:20:55.097Z,21.41
2017-05-16T09:21:56.503Z,21.46
2017-05-16T09:22:58.008Z,21.48
2017-05-16T09:23:59.408Z,21.30
2017-05-16T09:25:00.801Z,21.38
2017-05-16T09:26:03.022Z,21.46
2017-05-16T09:27:04.560Z,21.60
2017-05-16T09:28:05.987Z,21.64
2017-05-16T09:29:07.384Z,21.57
2017-05-16T09:30:08.785Z,21.51
2017-05-16T09:31:10.189Z,21.54
2017-05-16T09:32:11.585Z,21.50
2017-05-16T09:33:12.990Z,21.51
2017-05-16T09:34:14.387Z,21.45
2017-05-16T09:35:15.780Z,21.60
2017-05-16T09:36:17.177Z,21.61
2017-05-16T09:37:18.576Z,21.48
2017-05-16T09:38:19.972Z,21.63
2017-05-16T09:39:21.373Z,21.69
2017-05-16T09:40:22.872Z,21.83
2017-05-16T09:41:24.279Z,21.83
2017-05-16T09:42:25.681Z,21.91
2017-05-16T09:43:27.080Z,21.81
2017-05-16T09:44:28.491Z,21.64
2017-05-16T09:45:29.889Z,21.63
2017-05-16T09:46:31.293Z,21.79
2017-05-16T09:47:32.705Z,21.74
2017-05-16T09:48:34.112Z,21.87
2017-05-16T09:49:35.516Z,21.64
2017-05-16T09:50:36.918Z,21.69
2017-05-16T09:51:38.314Z,21.79
2017-05-16T09:52:39.720Z,21.82
2017-05-16T09:53:41.123Z,21.92
2017-05-16T09:54:42.523Z,22.12
2017-05-16T09:55:43.923Z,21.90
2017-05-16T09:56:45.336Z,21.95
2017-05-16T09:57:46.763Z,22.04
2017-05-16T09:58:48.170Z,21.98
2017-05-16T09:59:49.571Z,21.90
2017-05-16T10:00:50.987Z,21.91
2017-05-16T10:01:52.449Z,21.92
2017-05-16T10:02:53.826Z,22.01
2017-05-16T10:03:55.813Z,21.99
2017-05-16T10:04:57.222Z,22.09
2017-05-16T10:05:58.624Z,22.09
2017-05-16T10:07:00.909Z,21.92
2017-05-16T10:08:02.323Z,21.98
2017-05-16T10:09:03.814Z,22.04
2017-05-16T10:10:05.206Z,22.06
2017-05-16T10:11:06.594Z,22.12
2017-05-16T10:12:07.998Z,21.92
2017-05-16T10:13:09.402Z,22.02
2017-05-16T10:14:10.827Z,22.07
2017-05-16T10:15:12.240Z,22.23
2017-05-16T10:16:13.638Z,22.09
2017-05-16T10:17:15.029Z,22.28
2017-05-16T10:18:16.427Z,22.25
2017-05-16T10:19:17.822Z,22.14
2017-05-16T10:20:19.242Z,22.13
2017-05-16T10:21:20.653Z,22.37
2017-05-16T10:22:22.049Z,22.50
2017-05-16T10:23:23.439Z,22.59
2017-05-16T10:24:24.852Z,22.34
2017-05-16T10:25:26.250Z,22.07
2017-05-16T10:26:27.684Z,21.97
2017-05-16T10:27:29.082Z,22.12
2017-05-16T10:28:30.551Z,21.97
2017-05-16T10:29:31.941Z,21.99
2017-05-16T10:30:33.353Z,22.20
2017-05-16T10:31:34.783Z,22.31
2017-05-16T10:32:36.207Z,22.46
2017-05-16T10:33:37.682Z,22.57
2017-05-16T10:34:39.095Z,22.16
2017-05-16T10:36:20.115Z,22.34
2017-05-16T10:37:21.519Z,22.20
2017-05-16T10:38:22.950Z,22.29
2017-05-16T10:39:24.366Z,22.16
2017-05-16T10:40:25.805Z,22.14
2017-05-16T10:41:27.212Z,22.29
2017-05-16T10:42:28.606Z,22.46
2017-05-16T10:43:30.031Z,22.47
2017-05-16T10:44:31.425Z,22.56
2017-05-16T10:45:32.828Z,22.46
2017-05-16T10:46:34.232Z,22.64
2017-05-16T10:47:35.640Z,22.32
2017-05-16T10:48:37.044Z,22.37
2017-05-16T10:49:38.439Z,22.32
2017-05-16T10:50:39.858Z,22.52
2017-05-16T10:51:41.253Z,22.56
2017-05-16T10:52:42.647Z,22.59
2017-05-16T10:53:44.067Z,22.60
2017-05-16T10:54:45.487Z,22.78
2017-05-16T10:55:46.896Z,22.77
2017-05-16T10:56:48.294Z,22.75
2017-05-16T10:57:49.725Z,22.75
2017-05-16T10:58:51.119Z,22.72
2017-05-16T10:59:52.522Z,22.49
2017-05-16T11:00:53.931Z,22.38
2017-05-16T11:01:55.334Z,22.43
2017-05-16T11:02:56.741Z,22.64
2017-05-16T11:03:58.145Z,22.72
2017-05-16T11:04:59.547Z,22.64
2017-05-16T11:06:00.945Z,22.83
2017-05-16T11:07:02.337Z,22.78
2017-05-16T11:08:03.738Z,22.75
2017-05-16T11:09:05.136Z,22.60
2017-05-16T11:10:06.534Z,22.84
2017-05-16T11:11:08.572Z,23.08
2017-05-16T11:12:10.021Z,23.01
2017-05-16T11:13:11.414Z,23.04
2017-05-16T11:14:12.839Z,22.93
2017-05-16T11:15:14.235Z,22.93
2017-05-16T11:16:15.634Z,23.05
2017-05-16T11:17:17.038Z,23.07
2017-05-16T11:18:18.462Z,22.93
2017-05-16T11:19:19.899Z,22.83
2017-05-16T11:20:21.318Z,22.74
2017-05-16T11:21:22.727Z,22.87
2017-05-16T11:22:24.166Z,23.04
2017-05-16T11:23:25.564Z,23.17
2017-05-16T11:24:26.986Z,23.14
2017-05-16T11:25:28.411Z,23.09
2017-05-16T11:26:29.829Z,23.15
2017-05-16T11:27:31.259Z,23.14
2017-05-16T11:28:32.651Z,23.22
2017-05-16T11:29:34.046Z,23.07
2017-05-16T11:30:35.436Z,23.15
2017-05-16T11:31:36.858Z,23.04
2017-05-16T11:32:38.287Z,23.14
2017-05-16T11:33:39.699Z,23.22
2017-05-16T11:34:41.175Z,23.15
2017-05-16T11:35:42.638Z,22.83
2017-05-16T11:36:44.706Z,22.83
2017-05-16T11:37:46.163Z,22.86
2017-05-16T11:38:47.566Z,22.89
2017-05-16T11:39:48.963Z,22.77
2017-05-16T11:40:51.229Z,22.80
2017-05-16T11:41:52.639Z,22.86
2017-05-16T11:42:54.033Z,22.80
2017-05-16T11:43:55.427Z,22.75
2017-05-16T11:44:56.824Z,22.57
2017-05-16T11:45:58.237Z,22.60
2017-05-16T11:46:59.723Z,22.60
2017-05-16T11:48:01.132Z,22.80
2017-05-16T11:49:02.542Z,22.78
2017-05-16T11:50:03.946Z,22.59
2017-05-16T11:51:05.389Z,22.69
2017-05-16T11:52:06.795Z,22.62
2017-05-16T11:53:08.194Z,22.75
2017-05-16T11:54:09.552Z,22.90
2017-05-16T11:55:11.729Z,23.05
2017-05-16T11:56:13.261Z,23.20
2017-05-16T11:57:14.804Z,23.19
2017-05-16T11:58:16.234Z,23.29
2017-05-16T11:59:17.708Z,23.09
2017-05-16T12:00:19.128Z,23.17
2017-05-16T12:01:20.537Z,23.22
2017-05-16T12:02:21.939Z,23.22
2017-05-16T12:03:23.349Z,23.02
2017-05-16T12:04:24.747Z,23.12
2017-05-16T12:05:26.876Z,23.17
2017-05-16T12:06:28.276Z,22.89
2017-05-16T12:07:29.683Z,22.82
2017-05-16T12:08:31.098Z,22.78
2017-05-16T12:09:32.496Z,22.62
2017-05-16T12:10:33.931Z,22.75
2017-05-16T12:11:35.278Z,22.75
2017-05-16T12:12:36.682Z,22.62
2017-05-16T12:13:38.110Z,22.64
2017-05-16T12:14:40.430Z,22.64
2017-05-16T12:15:41.869Z,22.53
2017-05-16T12:16:43.276Z,22.65
2017-05-16T12:17:44.669Z,22.60
2017-05-16T12:18:46.089Z,22.60
2017-05-16T12:19:47.497Z,22.68
2017-05-16T12:20:48.932Z,22.78
2017-05-16T12:21:50.354Z,22.92
2017-05-16T12:22:51.773Z,22.99
2017-05-16T12:23:53.204Z,22.84
2017-05-16T12:24:54.684Z,22.75
2017-05-16T12:25:56.928Z,22.77
2017-05-16T12:26:58.324Z,22.77
2017-05-16T12:27:59.837Z,22.74
2017-05-16T12:29:01.252Z,22.89
2017-05-16T12:30:02.647Z,23.05
2017-05-16T12:31:04.067Z,22.97
2017-05-16T12:32:05.496Z,23.01
2017-05-16T12:33:06.908Z,23.01
2017-05-16T12:34:08.367Z,22.75
2017-05-16T12:35:09.762Z,22.93
2017-05-16T12:36:11.173Z,22.90
2017-05-16T12:37:12.587Z,23.02
2017-05-16T12:38:13.985Z,22.94
2017-05-16T12:39:15.400Z,23.05
2017-05-16T12:40:16.790Z,22.87
2017-05-16T12:41:18.182Z,23.05
2017-05-16T12:42:19.707Z,22.94
2017-05-16T12:43:21.129Z,23.07
2017-05-16T12:44:22.544Z,23.02
2017-05-16T12:45:23.988Z,23.01
2017-05-16T12:46:25.396Z,23.02
2017-05-16T12:47:26.801Z,23.08
2017-05-16T12:48:28.199Z,23.15
2017-05-16T12:49:29.592Z,23.20
2017-05-16T12:50:31.026Z,23.17
2017-05-16T12:51:32.422Z,23.22
2017-05-16T12:52:33.848Z,23.20
2017-05-16T12:53:36.217Z,23.22
2017-05-16T12:54:37.619Z,23.24
2017-05-16T12:55:39.032Z,23.14
2017-05-16T12:56:40.448Z,23.20
2017-05-16T12:57:41.840Z,23.42
2017-05-16T12:58:43.243Z,23.47
2017-05-16T12:59:44.655Z,23.65
2017-05-16T13:00:46.133Z,23.62
2017-05-16T13:01:47.539Z,23.62
2017-05-16T13:02:48.942Z,23.70
2017-05-16T13:03:50.335Z,23.65
2017-05-16T13:04:52.476Z,23.76
2017-05-16T13:05:54.044Z,23.62
2017-05-16T13:06:55.415Z,23.83
2017-05-16T13:07:56.826Z,23.57
2017-05-16T13:08:58.954Z,23.65
2017-05-16T13:10:00.422Z,23.47
2017-05-16T13:11:02.388Z,23.35
2017-05-16T13:12:04.692Z,23.32